PHHCM EHLE-EHBD

Flight info

Callsign PHHCM
Flight time N/A
Altitude 1200
Route FLEVO NYKER D324K
Aircraft R66/L-SGB/L

Departure

Time 2026-04-21 18:05
Airport Lelystad Airport (EHLE)

Arrival

Time N/A
Airport EHBD
Time Latitude Longitude Altitude Speed Heading
2026-04-21 17:47 52.45321 5.51935 -11 ft 0 kts 54°
2026-04-21 18:01 52.45321 5.51936 -5 ft 1 kts 60°
2026-04-21 18:01 52.45339 5.51915 8 ft 4 kts 39°
2026-04-21 18:01 52.45387 5.51937 3 ft 10 kts 358°
2026-04-21 18:01 52.45423 5.51897 -1 ft 3 kts 330°
2026-04-21 18:02 52.45427 5.51888 7 ft 0 kts 335°
2026-04-21 18:02 52.45438 5.51875 32 ft 10 kts 324°
2026-04-21 18:02 52.45476 5.51826 20 ft 1 kts 340°
2026-04-21 18:02 52.45491 5.51823 45 ft 9 kts 17°
2026-04-21 18:03 52.45600 5.51968 36 ft 34 kts 52°
2026-04-21 18:03 52.45761 5.52258 215 ft 29 kts 52°
2026-04-21 18:03 52.45945 5.52601 263 ft 57 kts 47°
2026-04-21 18:03 52.46239 5.53102 338 ft 57 kts 55°
2026-04-21 18:04 52.46208 5.53652 434 ft 56 kts 107°
2026-04-21 18:04 52.45990 5.54309 371 ft 73 kts 106°
2026-04-21 18:04 52.45585 5.54888 404 ft 93 kts 152°
2026-04-21 18:04 52.44864 5.55166 367 ft 117 kts 160°
2026-04-21 18:05 52.44108 5.55472 548 ft 111 kts 157°
2026-04-21 18:05 52.43377 5.55863 789 ft 109 kts 152°
2026-04-21 18:05 52.42681 5.56323 1056 ft 110 kts 148°
2026-04-21 18:05 52.41932 5.56960 1027 ft 128 kts 141°
2026-04-21 18:06 52.41161 5.57794 1015 ft 136 kts 136°
2026-04-21 18:06 52.40404 5.58714 1007 ft 137 kts 135°
2026-04-21 18:06 52.39642 5.59673 999 ft 138 kts 135°
2026-04-21 18:06 52.38811 5.60482 1004 ft 143 kts 154°
2026-04-21 18:07 52.37804 5.60621 1007 ft 149 kts 179°
2026-04-21 18:07 52.36778 5.60261 1008 ft 152 kts 190°
2026-04-21 18:07 52.35787 5.59688 1006 ft 152 kts 194°
2026-04-21 18:07 52.34805 5.59039 1014 ft 152 kts 196°
2026-04-21 18:08 52.33820 5.58390 1011 ft 154 kts 195°
2026-04-21 18:08 52.32824 5.57788 1006 ft 153 kts 193°
2026-04-21 18:08 52.31820 5.57238 1006 ft 150 kts 191°
2026-04-21 18:08 52.30829 5.56722 1009 ft 148 kts 192°
2026-04-21 18:09 52.29849 5.56218 1016 ft 150 kts 191°
2026-04-21 18:09 52.28845 5.55720 1011 ft 149 kts 191°
2026-04-21 18:09 52.27859 5.55237 1010 ft 147 kts 191°
2026-04-21 18:09 52.26891 5.54760 1012 ft 147 kts 192°
2026-04-21 18:10 52.25896 5.54268 1015 ft 151 kts 191°
2026-04-21 18:10 52.24872 5.53786 1013 ft 152 kts 189°
2026-04-21 18:10 52.23869 5.53336 1014 ft 150 kts 189°
2026-04-21 18:10 52.22858 5.52923 1012 ft 149 kts 184°
2026-04-21 18:11 52.21820 5.52828 1016 ft 148 kts 173°
2026-04-21 18:11 52.20796 5.52931 1010 ft 148 kts 167°
2026-04-21 18:11 52.19774 5.53099 1010 ft 147 kts 167°
2026-04-21 18:11 52.18757 5.53262 1011 ft 147 kts 168°
2026-04-21 18:12 52.17733 5.53404 1015 ft 147 kts 169°
2026-04-21 18:12 52.16721 5.53510 1012 ft 147 kts 170°
2026-04-21 18:12 52.15694 5.53595 1010 ft 147 kts 170°
2026-04-21 18:12 52.14667 5.53671 1012 ft 148 kts 170°
2026-04-21 18:13 52.13638 5.53749 1007 ft 147 kts 171°
2026-04-21 18:13 52.12631 5.53817 1005 ft 146 kts 172°
2026-04-21 18:13 52.11615 5.53873 1013 ft 146 kts 172°
2026-04-21 18:13 52.10592 5.53930 1009 ft 146 kts 171°
2026-04-21 18:14 52.08555 5.54078 1009 ft 148 kts 169°
2026-04-21 18:14 52.07525 5.54172 1007 ft 148 kts 170°
2026-04-21 18:14 52.06498 5.54260 1007 ft 148 kts 170°
2026-04-21 18:15 52.05475 5.54335 1010 ft 147 kts 171°
2026-04-21 18:15 52.04454 5.54394 1008 ft 146 kts 171°
2026-04-21 18:15 52.03437 5.54447 1010 ft 146 kts 171°
2026-04-21 18:15 52.02410 5.54511 1005 ft 148 kts 171°
2026-04-21 18:16 52.01387 5.54581 1008 ft 148 kts 171°
2026-04-21 18:16 52.00351 5.54655 1008 ft 149 kts 170°
2026-04-21 18:16 51.99319 5.54740 1013 ft 148 kts 170°
2026-04-21 18:16 51.98290 5.54832 1005 ft 150 kts 169°
2026-04-21 18:17 51.97256 5.54932 1004 ft 147 kts 171°
2026-04-21 18:17 51.96233 5.55012 1008 ft 146 kts 171°
2026-04-21 18:17 51.95257 5.55084 1029 ft 138 kts 171°
2026-04-21 18:17 51.94289 5.55151 1018 ft 140 kts 171°
2026-04-21 18:18 51.93314 5.55215 1009 ft 140 kts 170°
2026-04-21 18:18 51.92337 5.55288 1007 ft 140 kts 169°
2026-04-21 18:18 51.91365 5.55362 1008 ft 139 kts 169°
2026-04-21 18:18 51.90407 5.55429 1005 ft 138 kts 170°
2026-04-21 18:19 51.89457 5.55487 997 ft 137 kts 171°
2026-04-21 18:19 51.88510 5.55533 995 ft 135 kts 172°
2026-04-21 18:19 51.87569 5.55579 993 ft 135 kts 171°
2026-04-21 18:19 51.86640 5.55635 990 ft 136 kts 169°
2026-04-21 18:20 51.85697 5.55707 991 ft 135 kts 169°
2026-04-21 18:20 51.84753 5.55786 987 ft 136 kts 169°
2026-04-21 18:20 51.83805 5.55864 989 ft 135 kts 169°
2026-04-21 18:20 51.82875 5.55936 989 ft 134 kts 170°
2026-04-21 18:21 51.81943 5.56004 986 ft 135 kts 170°
2026-04-21 18:21 51.80999 5.56076 982 ft 135 kts 170°
2026-04-21 18:21 51.80062 5.56146 985 ft 136 kts 169°
2026-04-21 18:21 51.79121 5.56222 983 ft 136 kts 169°
2026-04-21 18:22 51.78174 5.56297 983 ft 136 kts 170°
2026-04-21 18:22 51.77235 5.56371 985 ft 135 kts 170°
2026-04-21 18:22 51.76289 5.56445 987 ft 137 kts 170°
2026-04-21 18:22 51.75343 5.56517 982 ft 138 kts 170°
2026-04-21 18:23 51.74373 5.56585 978 ft 139 kts 171°
2026-04-21 18:23 51.73413 5.56642 981 ft 141 kts 171°
2026-04-21 18:23 51.72423 5.56708 978 ft 142 kts 171°
2026-04-21 18:23 51.71435 5.56777 980 ft 141 kts 170°
2026-04-21 18:24 51.70452 5.56853 975 ft 141 kts 170°
2026-04-21 18:24 51.69480 5.56930 978 ft 141 kts 170°
2026-04-21 18:24 51.68496 5.57005 975 ft 140 kts 170°
2026-04-21 18:24 51.67533 5.57071 975 ft 139 kts 171°
2026-04-21 18:25 51.66568 5.57133 980 ft 138 kts 171°
2026-04-21 18:25 51.65614 5.57197 978 ft 138 kts 171°
2026-04-21 18:25 51.64653 5.57260 979 ft 137 kts 171°
2026-04-21 18:25 51.63691 5.57329 982 ft 138 kts 170°
2026-04-21 18:26 51.62740 5.57404 979 ft 138 kts 170°
2026-04-21 18:26 51.61771 5.57480 978 ft 139 kts 170°
2026-04-21 18:26 51.60810 5.57554 979 ft 138 kts 170°
2026-04-21 18:26 51.59858 5.57622 980 ft 138 kts 170°
2026-04-21 18:27 51.58892 5.57690 983 ft 139 kts 170°
2026-04-21 18:27 51.57924 5.57761 978 ft 139 kts 170°
2026-04-21 18:27 51.56962 5.57829 981 ft 138 kts 170°
2026-04-21 18:27 51.56017 5.57894 980 ft 138 kts 171°
2026-04-21 18:28 51.55052 5.57960 980 ft 138 kts 171°
2026-04-21 18:28 51.54089 5.58030 985 ft 140 kts 171°
2026-04-21 18:28 51.53106 5.58112 979 ft 141 kts 171°
2026-04-21 18:28 51.52123 5.58196 979 ft 143 kts 170°
2026-04-21 18:29 51.51134 5.58281 979 ft 143 kts 170°
2026-04-21 18:29 51.50137 5.58359 980 ft 142 kts 171°
2026-04-21 18:29 51.49150 5.58423 978 ft 140 kts 171°
2026-04-21 18:29 51.48185 5.58481 981 ft 141 kts 171°
2026-04-21 18:30 51.47200 5.58544 981 ft 141 kts 171°
2026-04-21 18:30 51.46218 5.58613 985 ft 140 kts 171°
2026-04-21 18:30 51.45250 5.58683 982 ft 141 kts 171°
2026-04-21 18:30 51.44266 5.58755 978 ft 140 kts 169°